sensor_id;sensor_type;location;lat;lon;timestamp;temperature;humidity
64858;SHT30;51335;51.148;6.950;2023-04-27T00:00:17;4.30;86.47
64858;SHT30;51335;51.148;6.950;2023-04-27T00:00:47;4.31;86.61
64858;SHT30;51335;51.148;6.950;2023-04-27T00:01:17;4.30;86.56
64858;SHT30;51335;51.148;6.950;2023-04-27T00:01:48;4.24;86.52
64858;SHT30;51335;51.148;6.950;2023-04-27T00:02:18;4.24;86.65
64858;SHT30;51335;51.148;6.950;2023-04-27T00:02:49;4.27;86.86
64858;SHT30;51335;51.148;6.950;2023-04-27T00:03:19;4.27;86.81
64858;SHT30;51335;51.148;6.950;2023-04-27T00:03:49;4.32;86.67
64858;SHT30;51335;51.148;6.950;2023-04-27T00:04:19;4.37;86.45
64858;SHT30;51335;51.148;6.950;2023-04-27T00:04:50;4.42;86.25
64858;SHT30;51335;51.148;6.950;2023-04-27T00:05:20;4.44;86.00
64858;SHT30;51335;51.148;6.950;2023-04-27T00:05:50;4.44;85.84
64858;SHT30;51335;51.148;6.950;2023-04-27T00:06:20;4.41;85.75
64858;SHT30;51335;51.148;6.950;2023-04-27T00:06:51;4.42;85.82
64858;SHT30;51335;51.148;6.950;2023-04-27T00:07:21;4.45;85.76
64858;SHT30;51335;51.148;6.950;2023-04-27T00:07:51;4.42;85.83
64858;SHT30;51335;51.148;6.950;2023-04-27T00:08:21;4.41;85.82
64858;SHT30;51335;51.148;6.950;2023-04-27T00:08:52;4.45;85.81
64858;SHT30;51335;51.148;6.950;2023-04-27T00:09:22;4.44;85.73
64858;SHT30;51335;51.148;6.950;2023-04-27T00:09:52;4.45;85.75
64858;SHT30;51335;51.148;6.950;2023-04-27T00:10:22;4.44;85.75
64858;SHT30;51335;51.148;6.950;2023-04-27T00:10:53;4.42;85.72
64858;SHT30;51335;51.148;6.950;2023-04-27T00:11:23;4.38;85.74
64858;SHT30;51335;51.148;6.950;2023-04-27T00:11:53;4.34;85.75
64858;SHT30;51335;51.148;6.950;2023-04-27T00:12:24;4.28;85.85
64858;SHT30;51335;51.148;6.950;2023-04-27T00:12:54;4.30;85.96
64858;SHT30;51335;51.148;6.950;2023-04-27T00:13:24;4.27;86.04
64858;SHT30;51335;51.148;6.950;2023-04-27T00:13:55;4.21;86.16
64858;SHT30;51335;51.148;6.950;2023-04-27T00:14:25;4.14;86.28
64858;SHT30;51335;51.148;6.950;2023-04-27T00:14:55;4.08;86.43
64858;SHT30;51335;51.148;6.950;2023-04-27T00:15:26;4.07;86.65
64858;SHT30;51335;51.148;6.950;2023-04-27T00:15:56;4.03;86.83
64858;SHT30;51335;51.148;6.950;2023-04-27T00:16:27;3.93;86.98
64858;SHT30;51335;51.148;6.950;2023-04-27T00:16:57;3.89;87.33
64858;SHT30;51335;51.148;6.950;2023-04-27T00:17:27;3.87;87.44
64858;SHT30;51335;51.148;6.950;2023-04-27T00:17:57;3.86;87.69
64858;SHT30;51335;51.148;6.950;2023-04-27T00:18:31;3.84;87.86
64858;SHT30;51335;51.148;6.950;2023-04-27T00:19:01;3.89;87.99
64858;SHT30;51335;51.148;6.950;2023-04-27T00:19:31;3.87;88.00
64858;SHT30;51335;51.148;6.950;2023-04-27T00:20:02;3.90;87.99
64858;SHT30;51335;51.148;6.950;2023-04-27T00:20:32;3.90;87.99
64858;SHT30;51335;51.148;6.950;2023-04-27T00:21:02;3.95;87.85
64858;SHT30;51335;51.148;6.950;2023-04-27T00:21:33;3.95;87.77
64858;SHT30;51335;51.148;6.950;2023-04-27T00:22:03;3.97;87.70
64858;SHT30;51335;51.148;6.950;2023-04-27T00:22:34;3.94;87.67
64858;SHT30;51335;51.148;6.950;2023-04-27T00:23:04;3.93;87.72
64858;SHT30;51335;51.148;6.950;2023-04-27T00:23:35;3.91;87.72
64858;SHT30;51335;51.148;6.950;2023-04-27T00:24:05;3.87;87.75
64858;SHT30;51335;51.148;6.950;2023-04-27T00:24:36;3.93;87.81
64858;SHT30;51335;51.148;6.950;2023-04-27T00:25:06;3.89;87.73
64858;SHT30;51335;51.148;6.950;2023-04-27T00:25:37;3.83;87.74
64858;SHT30;51335;51.148;6.950;2023-04-27T00:26:07;3.84;87.85
64858;SHT30;51335;51.148;6.950;2023-04-27T00:26:37;3.86;87.79
64858;SHT30;51335;51.148;6.950;2023-04-27T00:27:08;3.84;87.80
64858;SHT30;51335;51.148;6.950;2023-04-27T00:27:38;3.83;87.77
64858;SHT30;51335;51.148;6.950;2023-04-27T00:28:09;3.79;87.76
64858;SHT30;51335;51.148;6.950;2023-04-27T00:28:39;3.76;87.72
64858;SHT30;51335;51.148;6.950;2023-04-27T00:29:09;3.73;87.72
64858;SHT30;51335;51.148;6.950;2023-04-27T00:29:39;3.74;87.76
64858;SHT30;51335;51.148;6.950;2023-04-27T00:30:10;3.69;87.80
64858;SHT30;51335;51.148;6.950;2023-04-27T00:30:40;3.63;87.95
64858;SHT30;51335;51.148;6.950;2023-04-27T00:31:10;3.59;87.98
64858;SHT30;51335;51.148;6.950;2023-04-27T00:31:41;3.58;88.03
64858;SHT30;51335;51.148;6.950;2023-04-27T00:32:11;3.55;88.08
64858;SHT30;51335;51.148;6.950;2023-04-27T00:32:41;3.52;88.31
64858;SHT30;51335;51.148;6.950;2023-04-27T00:33:11;3.45;88.38
64858;SHT30;51335;51.148;6.950;2023-04-27T00:33:42;3.45;88.51
64858;SHT30;51335;51.148;6.950;2023-04-27T00:34:12;3.39;88.59
64858;SHT30;51335;51.148;6.950;2023-04-27T00:34:42;3.36;88.78
64858;SHT30;51335;51.148;6.950;2023-04-27T00:35:12;3.31;88.94
64858;SHT30;51335;51.148;6.950;2023-04-27T00:35:43;3.29;89.09
64858;SHT30;51335;51.148;6.950;2023-04-27T00:36:13;3.28;89.18
64858;SHT30;51335;51.148;6.950;2023-04-27T00:36:43;3.22;89.31
64858;SHT30;51335;51.148;6.950;2023-04-27T00:37:13;3.24;89.48
64858;SHT30;51335;51.148;6.950;2023-04-27T00:37:44;3.19;89.75
64858;SHT30;51335;51.148;6.950;2023-04-27T00:38:14;3.14;90.08
64858;SHT30;51335;51.148;6.950;2023-04-27T00:38:44;3.14;90.21
64858;SHT30;51335;51.148;6.950;2023-04-27T00:39:15;3.11;90.17
64858;SHT30;51335;51.148;6.950;2023-04-27T00:39:45;3.09;90.21
64858;SHT30;51335;51.148;6.950;2023-04-27T00:40:15;3.09;90.37
64858;SHT30;51335;51.148;6.950;2023-04-27T00:40:45;3.09;90.44
64858;SHT30;51335;51.148;6.950;2023-04-27T00:41:16;3.11;90.58
64858;SHT30;51335;51.148;6.950;2023-04-27T00:41:46;3.11;90.56
64858;SHT30;51335;51.148;6.950;2023-04-27T00:42:16;3.11;90.63
64858;SHT30;51335;51.148;6.950;2023-04-27T00:42:46;3.09;90.66
64858;SHT30;51335;51.148;6.950;2023-04-27T00:43:17;3.09;90.74
64858;SHT30;51335;51.148;6.950;2023-04-27T00:43:47;3.08;90.78
64858;SHT30;51335;51.148;6.950;2023-04-27T00:44:24;3.09;90.93
64858;SHT30;51335;51.148;6.950;2023-04-27T00:44:56;3.12;91.10
64858;SHT30;51335;51.148;6.950;2023-04-27T00:45:27;3.17;91.11
64858;SHT30;51335;51.148;6.950;2023-04-27T00:45:58;3.24;91.10
64858;SHT30;51335;51.148;6.950;2023-04-27T00:46:28;3.28;90.90
64858;SHT30;51335;51.148;6.950;2023-04-27T00:46:59;3.31;90.73
64858;SHT30;51335;51.148;6.950;2023-04-27T00:47:29;3.34;90.69
64858;SHT30;51335;51.148;6.950;2023-04-27T00:48:00;3.36;90.61
64858;SHT30;51335;51.148;6.950;2023-04-27T00:48:30;3.46;90.42
64858;SHT30;51335;51.148;6.950;2023-04-27T00:49:00;3.49;90.27
64858;SHT30;51335;51.148;6.950;2023-04-27T00:49:31;3.51;90.04
64858;SHT30;51335;51.148;6.950;2023-04-27T00:50:02;3.52;90.01
64858;SHT30;51335;51.148;6.950;2023-04-27T00:50:32;3.53;89.95
64858;SHT30;51335;51.148;6.950;2023-04-27T00:51:04;3.56;89.88
64858;SHT30;51335;51.148;6.950;2023-04-27T00:51:34;3.59;89.72
64858;SHT30;51335;51.148;6.950;2023-04-27T00:52:05;3.58;89.63
64858;SHT30;51335;51.148;6.950;2023-04-27T00:52:35;3.59;89.57
64858;SHT30;51335;51.148;6.950;2023-04-27T00:53:06;3.55;89.60
64858;SHT30;51335;51.148;6.950;2023-04-27T00:53:36;3.56;89.66
64858;SHT30;51335;51.148;6.950;2023-04-27T00:54:07;3.59;89.72
64858;SHT30;51335;51.148;6.950;2023-04-27T00:54:38;3.60;89.67
64858;SHT30;51335;51.148;6.950;2023-04-27T00:55:08;3.67;89.46
64858;SHT30;51335;51.148;6.950;2023-04-27T00:55:39;3.73;89.31
64858;SHT30;51335;51.148;6.950;2023-04-27T00:56:09;3.76;89.09
64858;SHT30;51335;51.148;6.950;2023-04-27T00:56:41;3.82;88.90
64858;SHT30;51335;51.148;6.950;2023-04-27T00:57:12;3.91;88.65
64858;SHT30;51335;51.148;6.950;2023-04-27T00:57:42;3.93;88.38
64858;SHT30;51335;51.148;6.950;2023-04-27T00:58:12;3.98;88.22
64858;SHT30;51335;51.148;6.950;2023-04-27T00:58:43;4.00;88.11
64858;SHT30;51335;51.148;6.950;2023-04-27T00:59:13;3.98;88.08
64858;SHT30;51335;51.148;6.950;2023-04-27T00:59:43;4.04;88.09
64858;SHT30;51335;51.148;6.950;2023-04-27T01:00:13;4.07;88.00
64858;SHT30;51335;51.148;6.950;2023-04-27T01:00:44;4.08;87.93
64858;SHT30;51335;51.148;6.950;2023-04-27T01:01:14;4.01;87.73
64858;SHT30;51335;51.148;6.950;2023-04-27T01:01:45;4.05;87.92
64858;SHT30;51335;51.148;6.950;2023-04-27T01:02:15;4.10;87.94
64858;SHT30;51335;51.148;6.950;2023-04-27T01:02:46;4.10;87.76
64858;SHT30;51335;51.148;6.950;2023-04-27T01:03:16;4.10;87.73
64858;SHT30;51335;51.148;6.950;2023-04-27T01:03:47;4.05;87.74
64858;SHT30;51335;51.148;6.950;2023-04-27T01:04:18;4.07;87.81
64858;SHT30;51335;51.148;6.950;2023-04-27T01:04:49;4.08;87.77
64858;SHT30;51335;51.148;6.950;2023-04-27T01:05:19;4.13;87.53
64858;SHT30;51335;51.148;6.950;2023-04-27T01:05:49;4.07;87.44
64858;SHT30;51335;51.148;6.950;2023-04-27T01:06:20;4.10;87.45
64858;SHT30;51335;51.148;6.950;2023-04-27T01:06:50;4.07;87.52
64858;SHT30;51335;51.148;6.950;2023-04-27T01:07:24;4.04;87.39
64858;SHT30;51335;51.148;6.950;2023-04-27T01:07:54;4.00;87.58
64858;SHT30;51335;51.148;6.950;2023-04-27T01:08:24;3.95;87.64
64858;SHT30;51335;51.148;6.950;2023-04-27T01:08:54;3.93;87.77
64858;SHT30;51335;51.148;6.950;2023-04-27T01:09:25;3.87;87.76
64858;SHT30;51335;51.148;6.950;2023-04-27T01:09:55;3.90;88.03
64858;SHT30;51335;51.148;6.950;2023-04-27T01:10:25;3.89;88.07
64858;SHT30;51335;51.148;6.950;2023-04-27T01:10:56;3.83;88.11
64858;SHT30;51335;51.148;6.950;2023-04-27T01:11:26;3.86;88.28
64858;SHT30;51335;51.148;6.950;2023-04-27T01:11:56;3.83;88.31
64858;SHT30;51335;51.148;6.950;2023-04-27T01:12:26;3.83;88.46
64858;SHT30;51335;51.148;6.950;2023-04-27T01:12:57;3.77;88.40
64858;SHT30;51335;51.148;6.950;2023-04-27T01:13:27;3.74;88.52
64858;SHT30;51335;51.148;6.950;2023-04-27T01:14:04;3.76;88.69
64858;SHT30;51335;51.148;6.950;2023-04-27T01:14:35;3.74;88.71
64858;SHT30;51335;51.148;6.950;2023-04-27T01:15:06;3.74;88.84
64858;SHT30;51335;51.148;6.950;2023-04-27T01:15:37;3.79;88.84
64858;SHT30;51335;51.148;6.950;2023-04-27T01:16:07;3.74;88.75
64858;SHT30;51335;51.148;6.950;2023-04-27T01:16:37;3.76;88.82
64858;SHT30;51335;51.148;6.950;2023-04-27T01:17:07;3.79;88.80
64858;SHT30;51335;51.148;6.950;2023-04-27T01:17:38;3.77;88.73
64858;SHT30;51335;51.148;6.950;2023-04-27T01:18:08;3.79;88.72
64858;SHT30;51335;51.148;6.950;2023-04-27T01:18:38;3.77;88.62
64858;SHT30;51335;51.148;6.950;2023-04-27T01:19:09;3.76;88.66
64858;SHT30;51335;51.148;6.950;2023-04-27T01:19:39;3.76;88.74
64858;SHT30;51335;51.148;6.950;2023-04-27T01:20:10;3.73;88.72
64858;SHT30;51335;51.148;6.950;2023-04-27T01:20:40;3.66;88.81
64858;SHT30;51335;51.148;6.950;2023-04-27T01:21:10;3.66;88.90
64858;SHT30;51335;51.148;6.950;2023-04-27T01:21:41;3.63;88.97
64858;SHT30;51335;51.148;6.950;2023-04-27T01:22:11;3.59;89.08
64858;SHT30;51335;51.148;6.950;2023-04-27T01:22:41;3.58;89.08
64858;SHT30;51335;51.148;6.950;2023-04-27T01:23:13;3.55;89.25
64858;SHT30;51335;51.148;6.950;2023-04-27T01:23:43;3.51;89.38
64858;SHT30;51335;51.148;6.950;2023-04-27T01:24:13;3.51;89.40
64858;SHT30;51335;51.148;6.950;2023-04-27T01:24:43;3.49;89.43
64858;SHT30;51335;51.148;6.950;2023-04-27T01:25:14;3.48;89.46
64858;SHT30;51335;51.148;6.950;2023-04-27T01:25:44;3.45;89.57
64858;SHT30;51335;51.148;6.950;2023-04-27T01:26:14;3.43;89.65
64858;SHT30;51335;51.148;6.950;2023-04-27T01:26:44;3.48;89.75
64858;SHT30;51335;51.148;6.950;2023-04-27T01:27:15;3.48;89.66
64858;SHT30;51335;51.148;6.950;2023-04-27T01:27:45;3.43;89.69
64858;SHT30;51335;51.148;6.950;2023-04-27T01:28:15;3.43;89.73
64858;SHT30;51335;51.148;6.950;2023-04-27T01:28:46;3.40;89.79
64858;SHT30;51335;51.148;6.950;2023-04-27T01:29:16;3.38;89.83
64858;SHT30;51335;51.148;6.950;2023-04-27T01:29:46;3.35;89.89
64858;SHT30;51335;51.148;6.950;2023-04-27T01:30:17;3.31;89.87
64858;SHT30;51335;51.148;6.950;2023-04-27T01:30:47;3.31;89.89
64858;SHT30;51335;51.148;6.950;2023-04-27T01:31:17;3.28;89.93
64858;SHT30;51335;51.148;6.950;2023-04-27T01:31:47;3.25;90.04
64858;SHT30;51335;51.148;6.950;2023-04-27T01:32:18;3.28;90.11
64858;SHT30;51335;51.148;6.950;2023-04-27T01:32:48;3.26;90.12
64858;SHT30;51335;51.148;6.950;2023-04-27T01:33:18;3.26;90.14
64858;SHT30;51335;51.148;6.950;2023-04-27T01:33:49;3.26;90.13
64858;SHT30;51335;51.148;6.950;2023-04-27T01:34:19;3.22;90.17
64858;SHT30;51335;51.148;6.950;2023-04-27T01:34:49;3.19;90.22
64858;SHT30;51335;51.148;6.950;2023-04-27T01:35:19;3.19;90.26
64858;SHT30;51335;51.148;6.950;2023-04-27T01:35:50;3.17;90.27
64858;SHT30;51335;51.148;6.950;2023-04-27T01:36:20;3.25;90.33
64858;SHT30;51335;51.148;6.950;2023-04-27T01:36:50;3.21;90.26
64858;SHT30;51335;51.148;6.950;2023-04-27T01:37:20;3.22;90.24
64858;SHT30;51335;51.148;6.950;2023-04-27T01:37:51;3.25;90.24
64858;SHT30;51335;51.148;6.950;2023-04-27T01:38:21;3.22;90.18
64858;SHT30;51335;51.148;6.950;2023-04-27T01:38:51;3.18;90.20
64858;SHT30;51335;51.148;6.950;2023-04-27T01:39:22;3.14;90.18
64858;SHT30;51335;51.148;6.950;2023-04-27T01:39:52;3.11;90.16
64858;SHT30;51335;51.148;6.950;2023-04-27T01:40:22;3.08;90.43
64858;SHT30;51335;51.148;6.950;2023-04-27T01:40:52;3.04;90.42
64858;SHT30;51335;51.148;6.950;2023-04-27T01:41:23;3.04;90.52
64858;SHT30;51335;51.148;6.950;2023-04-27T01:41:53;2.98;90.51
64858;SHT30;51335;51.148;6.950;2023-04-27T01:42:23;2.93;90.55
64858;SHT30;51335;51.148;6.950;2023-04-27T01:42:53;2.90;90.77
64858;SHT30;51335;51.148;6.950;2023-04-27T01:43:24;2.88;90.78
64858;SHT30;51335;51.148;6.950;2023-04-27T01:43:54;2.88;90.84
64858;SHT30;51335;51.148;6.950;2023-04-27T01:44:24;2.81;90.88
64858;SHT30;51335;51.148;6.950;2023-04-27T01:44:54;2.81;90.96
64858;SHT30;51335;51.148;6.950;2023-04-27T01:45:25;2.77;91.04
64858;SHT30;51335;51.148;6.950;2023-04-27T01:45:55;2.76;91.07
64858;SHT30;51335;51.148;6.950;2023-04-27T01:46:25;2.76;91.20
64858;SHT30;51335;51.148;6.950;2023-04-27T01:46:55;2.73;91.34
64858;SHT30;51335;51.148;6.950;2023-04-27T01:47:26;2.72;91.31
64858;SHT30;51335;51.148;6.950;2023-04-27T01:47:56;2.72;91.34
64858;SHT30;51335;51.148;6.950;2023-04-27T01:48:27;2.68;91.43
64858;SHT30;51335;51.148;6.950;2023-04-27T01:48:57;2.66;91.53
64858;SHT30;51335;51.148;6.950;2023-04-27T01:49:27;2.66;91.60
64858;SHT30;51335;51.148;6.950;2023-04-27T01:49:57;2.64;91.70
64858;SHT30;51335;51.148;6.950;2023-04-27T01:50:27;2.63;91.82
64858;SHT30;51335;51.148;6.950;2023-04-27T01:50:58;2.63;91.85
64858;SHT30;51335;51.148;6.950;2023-04-27T01:51:28;2.60;91.94
64858;SHT30;51335;51.148;6.950;2023-04-27T01:51:58;2.60;92.01
64858;SHT30;51335;51.148;6.950;2023-04-27T01:52:28;2.57;91.99
64858;SHT30;51335;51.148;6.950;2023-04-27T01:52:59;2.57;92.14
64858;SHT30;51335;51.148;6.950;2023-04-27T01:53:30;2.59;92.16
64858;SHT30;51335;51.148;6.950;2023-04-27T01:54:00;2.60;92.32
64858;SHT30;51335;51.148;6.950;2023-04-27T01:54:30;2.60;92.40
64858;SHT30;51335;51.148;6.950;2023-04-27T01:55:00;2.57;92.40
64858;SHT30;51335;51.148;6.950;2023-04-27T01:55:31;2.59;92.50
64858;SHT30;51335;51.148;6.950;2023-04-27T01:56:01;2.68;92.60
64858;SHT30;51335;51.148;6.950;2023-04-27T01:56:31;2.73;92.54
64858;SHT30;51335;51.148;6.950;2023-04-27T01:57:02;2.72;92.45
64858;SHT30;51335;51.148;6.950;2023-04-27T01:57:32;2.72;92.44
64858;SHT30;51335;51.148;6.950;2023-04-27T01:58:02;2.68;92.39
64858;SHT30;51335;51.148;6.950;2023-04-27T01:58:33;2.70;92.46
64858;SHT30;51335;51.148;6.950;2023-04-27T01:59:03;2.72;92.51
64858;SHT30;51335;51.148;6.950;2023-04-27T01:59:33;2.68;92.46
64858;SHT30;51335;51.148;6.950;2023-04-27T02:00:04;2.67;92.45
64858;SHT30;51335;51.148;6.950;2023-04-27T02:00:34;2.68;92.50
64858;SHT30;51335;51.148;6.950;2023-04-27T02:01:05;2.70;92.56
64858;SHT30;51335;51.148;6.950;2023-04-27T02:01:35;2.72;92.48
64858;SHT30;51335;51.148;6.950;2023-04-27T02:02:05;2.73;92.29
64858;SHT30;51335;51.148;6.950;2023-04-27T02:02:35;2.73;92.31
64858;SHT30;51335;51.148;6.950;2023-04-27T02:03:06;2.74;92.30
64858;SHT30;51335;51.148;6.950;2023-04-27T02:03:36;2.76;92.33
64858;SHT30;51335;51.148;6.950;2023-04-27T02:04:06;2.77;92.39
64858;SHT30;51335;51.148;6.950;2023-04-27T02:04:36;2.77;92.43
64858;SHT30;51335;51.148;6.950;2023-04-27T02:05:07;2.77;92.46
64858;SHT30;51335;51.148;6.950;2023-04-27T02:05:37;2.80;92.52
64858;SHT30;51335;51.148;6.950;2023-04-27T02:06:07;2.81;92.50
64858;SHT30;51335;51.148;6.950;2023-04-27T02:06:38;2.86;92.48
64858;SHT30;51335;51.148;6.950;2023-04-27T02:07:08;2.88;92.43
64858;SHT30;51335;51.148;6.950;2023-04-27T02:07:38;2.90;92.30
64858;SHT30;51335;51.148;6.950;2023-04-27T02:08:08;2.91;92.27
64858;SHT30;51335;51.148;6.950;2023-04-27T02:08:39;2.94;92.17
64858;SHT30;51335;51.148;6.950;2023-04-27T02:09:09;2.98;92.05
64858;SHT30;51335;51.148;6.950;2023-04-27T02:09:39;2.96;92.01
64858;SHT30;51335;51.148;6.950;2023-04-27T02:10:10;2.93;91.96
64858;SHT30;51335;51.148;6.950;2023-04-27T02:10:40;2.93;92.02
64858;SHT30;51335;51.148;6.950;2023-04-27T02:11:10;2.91;92.05
64858;SHT30;51335;51.148;6.950;2023-04-27T02:11:41;2.94;92.09
64858;SHT30;51335;51.148;6.950;2023-04-27T02:12:11;2.90;92.06
64858;SHT30;51335;51.148;6.950;2023-04-27T02:12:41;2.88;91.99
64858;SHT30;51335;51.148;6.950;2023-04-27T02:13:11;2.93;92.09
64858;SHT30;51335;51.148;6.950;2023-04-27T02:13:42;2.94;92.11
64858;SHT30;51335;51.148;6.950;2023-04-27T02:14:12;2.88;92.07
64858;SHT30;51335;51.148;6.950;2023-04-27T02:14:43;2.88;92.08
64858;SHT30;51335;51.148;6.950;2023-04-27T02:15:13;2.93;92.06
64858;SHT30;51335;51.148;6.950;2023-04-27T02:15:43;3.00;91.86
64858;SHT30;51335;51.148;6.950;2023-04-27T02:16:13;2.98;91.69
64858;SHT30;51335;51.148;6.950;2023-04-27T02:16:44;2.94;91.62
64858;SHT30;51335;51.148;6.950;2023-04-27T02:17:14;2.90;91.74
64858;SHT30;51335;51.148;6.950;2023-04-27T02:17:44;2.86;91.75
64858;SHT30;51335;51.148;6.950;2023-04-27T02:18:14;2.80;91.79
64858;SHT30;51335;51.148;6.950;2023-04-27T02:18:45;2.81;91.96
64858;SHT30;51335;51.148;6.950;2023-04-27T02:19:15;2.79;91.93
64858;SHT30;51335;51.148;6.950;2023-04-27T02:19:45;2.80;91.95
64858;SHT30;51335;51.148;6.950;2023-04-27T02:20:15;2.83;91.81
64858;SHT30;51335;51.148;6.950;2023-04-27T02:20:46;2.79;91.76
64858;SHT30;51335;51.148;6.950;2023-04-27T02:21:16;2.81;91.95
64858;SHT30;51335;51.148;6.950;2023-04-27T02:21:46;2.81;91.95
64858;SHT30;51335;51.148;6.950;2023-04-27T02:22:16;2.77;91.93
64858;SHT30;51335;51.148;6.950;2023-04-27T02:22:47;2.76;92.05
64858;SHT30;51335;51.148;6.950;2023-04-27T02:23:17;2.74;92.11
64858;SHT30;51335;51.148;6.950;2023-04-27T02:23:47;2.76;92.15
64858;SHT30;51335;51.148;6.950;2023-04-27T02:24:17;2.72;92.18
64858;SHT30;51335;51.148;6.950;2023-04-27T02:24:48;2.70;92.30
64858;SHT30;51335;51.148;6.950;2023-04-27T02:25:18;2.74;92.40
64858;SHT30;51335;51.148;6.950;2023-04-27T02:25:48;2.68;92.30
64858;SHT30;51335;51.148;6.950;2023-04-27T02:26:20;2.66;92.36
64858;SHT30;51335;51.148;6.950;2023-04-27T02:26:50;2.66;92.55
64858;SHT30;51335;51.148;6.950;2023-04-27T02:27:20;2.68;92.70
64858;SHT30;51335;51.148;6.950;2023-04-27T02:27:50;2.70;92.70
64858;SHT30;51335;51.148;6.950;2023-04-27T02:28:21;2.68;92.68
64858;SHT30;51335;51.148;6.950;2023-04-27T02:28:51;2.68;92.68
64858;SHT30;51335;51.148;6.950;2023-04-27T02:29:21;2.64;92.71
64858;SHT30;51335;51.148;6.950;2023-04-27T02:29:51;2.57;92.74
64858;SHT30;51335;51.148;6.950;2023-04-27T02:30:22;2.53;92.70
64858;SHT30;51335;51.148;6.950;2023-04-27T02:30:52;2.53;92.73
64858;SHT30;51335;51.148;6.950;2023-04-27T02:31:23;2.49;92.78
64858;SHT30;51335;51.148;6.950;2023-04-27T02:31:53;2.43;92.75
64858;SHT30;51335;51.148;6.950;2023-04-27T02:32:23;2.39;92.76
64858;SHT30;51335;51.148;6.950;2023-04-27T02:32:53;2.35;92.76
64858;SHT30;51335;51.148;6.950;2023-04-27T02:33:24;2.29;92.76
64858;SHT30;51335;51.148;6.950;2023-04-27T02:33:54;2.26;92.76
64858;SHT30;51335;51.148;6.950;2023-04-27T02:34:24;2.24;92.92
64858;SHT30;51335;51.148;6.950;2023-04-27T02:34:54;2.17;93.11
64858;SHT30;51335;51.148;6.950;2023-04-27T02:35:25;2.15;93.16
64858;SHT30;51335;51.148;6.950;2023-04-27T02:35:55;2.11;93.20
64858;SHT30;51335;51.148;6.950;2023-04-27T02:36:26;2.08;93.25
64858;SHT30;51335;51.148;6.950;2023-04-27T02:36:56;2.02;93.23
64858;SHT30;51335;51.148;6.950;2023-04-27T02:37:26;1.98;93.26
64858;SHT30;51335;51.148;6.950;2023-04-27T02:37:57;1.97;93.35
64858;SHT30;51335;51.148;6.950;2023-04-27T02:38:28;1.94;93.42
64858;SHT30;51335;51.148;6.950;2023-04-27T02:38:59;1.89;93.44
64858;SHT30;51335;51.148;6.950;2023-04-27T02:39:29;1.88;93.46
64858;SHT30;51335;51.148;6.950;2023-04-27T02:39:59;1.85;93.62
64858;SHT30;51335;51.148;6.950;2023-04-27T02:40:29;1.82;93.61
64858;SHT30;51335;51.148;6.950;2023-04-27T02:41:00;1.81;93.80
64858;SHT30;51335;51.148;6.950;2023-04-27T02:41:31;1.78;94.15
64858;SHT30;51335;51.148;6.950;2023-04-27T02:42:01;1.75;94.01
64858;SHT30;51335;51.148;6.950;2023-04-27T02:42:31;1.75;94.05
64858;SHT30;51335;51.148;6.950;2023-04-27T02:43:02;1.74;94.27
64858;SHT30;51335;51.148;6.950;2023-04-27T02:43:32;1.81;94.25
64858;SHT30;51335;51.148;6.950;2023-04-27T02:44:02;1.80;94.25
64858;SHT30;51335;51.148;6.950;2023-04-27T02:44:32;1.75;94.09
64858;SHT30;51335;51.148;6.950;2023-04-27T02:45:07;1.74;94.07
64858;SHT30;51335;51.148;6.950;2023-04-27T02:45:37;1.74;94.23
64858;SHT30;51335;51.148;6.950;2023-04-27T02:46:07;1.73;94.24
64858;SHT30;51335;51.148;6.950;2023-04-27T02:46:37;1.70;94.24
64858;SHT30;51335;51.148;6.950;2023-04-27T02:47:08;1.67;94.20
64858;SHT30;51335;51.148;6.950;2023-04-27T02:47:38;1.67;94.38
64858;SHT30;51335;51.148;6.950;2023-04-27T02:48:08;1.61;94.38
64858;SHT30;51335;51.148;6.950;2023-04-27T02:48:39;1.67;94.53
64858;SHT30;51335;51.148;6.950;2023-04-27T02:49:09;1.64;94.59
64858;SHT30;51335;51.148;6.950;2023-04-27T02:49:39;1.60;94.98
64858;SHT30;51335;51.148;6.950;2023-04-27T02:50:10;1.59;94.91
64858;SHT30;51335;51.148;6.950;2023-04-27T02:50:41;1.60;94.91
64858;SHT30;51335;51.148;6.950;2023-04-27T02:51:11;1.63;95.08
64858;SHT30;51335;51.148;6.950;2023-04-27T02:51:41;1.59;95.06
64858;SHT30;51335;51.148;6.950;2023-04-27T02:52:12;1.66;95.13
64858;SHT30;51335;51.148;6.950;2023-04-27T02:52:42;1.70;95.25
64858;SHT30;51335;51.148;6.950;2023-04-27T02:53:12;1.70;95.15
64858;SHT30;51335;51.148;6.950;2023-04-27T02:53:42;1.67;95.10
64858;SHT30;51335;51.148;6.950;2023-04-27T02:54:13;1.66;95.40
64858;SHT30;51335;51.148;6.950;2023-04-27T02:54:43;1.70;95.37
64858;SHT30;51335;51.148;6.950;2023-04-27T02:55:13;1.73;95.37
64858;SHT30;51335;51.148;6.950;2023-04-27T02:55:45;1.70;95.33
64858;SHT30;51335;51.148;6.950;2023-04-27T02:56:15;1.70;95.40
64858;SHT30;51335;51.148;6.950;2023-04-27T02:56:46;1.77;95.59
64858;SHT30;51335;51.148;6.950;2023-04-27T02:57:16;1.78;95.59
64858;SHT30;51335;51.148;6.950;2023-04-27T02:57:46;1.77;95.55
64858;SHT30;51335;51.148;6.950;2023-04-27T02:58:16;1.78;95.59
64858;SHT30;51335;51.148;6.950;2023-04-27T02:58:47;1.75;95.61
64858;SHT30;51335;51.148;6.950;2023-04-27T02:59:17;1.77;95.62
64858;SHT30;51335;51.148;6.950;2023-04-27T02:59:47;1.75;95.56
64858;SHT30;51335;51.148;6.950;2023-04-27T03:00:17;1.74;95.55
64858;SHT30;51335;51.148;6.950;2023-04-27T03:00:52;1.77;95.62
64858;SHT30;51335;51.148;6.950;2023-04-27T03:01:23;1.77;95.66
64858;SHT30;51335;51.148;6.950;2023-04-27T03:01:53;1.75;95.66
64858;SHT30;51335;51.148;6.950;2023-04-27T03:02:23;1.77;95.72
64858;SHT30;51335;51.148;6.950;2023-04-27T03:02:54;1.77;95.66
64858;SHT30;51335;51.148;6.950;2023-04-27T03:03:24;1.77;95.70
64858;SHT30;51335;51.148;6.950;2023-04-27T03:03:54;1.77;95.70
64858;SHT30;51335;51.148;6.950;2023-04-27T03:04:24;1.75;95.70
64858;SHT30;51335;51.148;6.950;2023-04-27T03:04:55;1.75;95.64
64858;SHT30;51335;51.148;6.950;2023-04-27T03:05:25;1.77;95.61
64858;SHT30;51335;51.148;6.950;2023-04-27T03:05:55;1.80;95.55
64858;SHT30;51335;51.148;6.950;2023-04-27T03:06:25;1.77;95.42
64858;SHT30;51335;51.148;6.950;2023-04-27T03:06:56;1.75;95.29
64858;SHT30;51335;51.148;6.950;2023-04-27T03:07:26;1.71;95.23
64858;SHT30;51335;51.148;6.950;2023-04-27T03:07:56;1.70;95.12
64858;SHT30;51335;51.148;6.950;2023-04-27T03:08:26;1.67;95.05
64858;SHT30;51335;51.148;6.950;2023-04-27T03:08:57;1.63;94.99
64858;SHT30;51335;51.148;6.950;2023-04-27T03:09:27;1.57;94.97
64858;SHT30;51335;51.148;6.950;2023-04-27T03:09:57;1.54;95.15
64858;SHT30;51335;51.148;6.950;2023-04-27T03:10:27;1.53;95.08
64858;SHT30;51335;51.148;6.950;2023-04-27T03:10:58;1.49;95.17
64858;SHT30;51335;51.148;6.950;2023-04-27T03:11:28;1.46;95.20
64858;SHT30;51335;51.148;6.950;2023-04-27T03:11:58;1.43;95.32
64858;SHT30;51335;51.148;6.950;2023-04-27T03:12:28;1.39;95.37
64858;SHT30;51335;51.148;6.950;2023-04-27T03:12:59;1.39;95.36
64858;SHT30;51335;51.148;6.950;2023-04-27T03:13:29;1.39;95.47
64858;SHT30;51335;51.148;6.950;2023-04-27T03:13:59;1.39;95.52
64858;SHT30;51335;51.148;6.950;2023-04-27T03:14:29;1.35;95.49
64858;SHT30;51335;51.148;6.950;2023-04-27T03:15:00;1.33;95.44